Time;durP1;ratioP1;P1;durP2;ratioP2;P2;SDS_P1;SDS_P2;PMS_P1;PMS_P2;Temp;Humidity;BMP_temperature;BMP_pressure;BME280_temperature;BME280_humidity;BME280_pressure;Samples;Min_cycle;Max_cycle;Signal;HPM_P1;HPM_P2
2023/08/28 00:01:10;;;;;;;2.33;0.90;;;21.40;91.90;;;;;;5071893;28;20414;-66
2023/08/28 00:03:36;;;;;;;2.38;1.10;;;21.20;92.80;;;;;;5071135;28;20045;-65
2023/08/28 00:06:02;;;;;;;2.00;0.70;;;21.40;92.90;;;;;;5054881;28;20048;-63
2023/08/28 00:08:28;;;;;;;3.05;0.80;;;21.40;93.00;;;;;;5072663;28;20048;-65
2023/08/28 00:10:53;;;;;;;4.43;1.00;;;21.10;93.10;;;;;;5050809;28;20080;-71
2023/08/28 00:13:19;;;;;;;2.70;1.17;;;21.20;92.90;;;;;;5072486;28;20116;-64
2023/08/28 00:15:45;;;;;;;3.13;1.00;;;21.20;93.20;;;;;;5087555;28;20461;-64
2023/08/28 00:18:11;;;;;;;1.95;0.95;;;21.10;92.90;;;;;;5055201;28;20717;-66
2023/08/28 00:20:36;;;;;;;2.70;1.00;;;21.40;91.90;;;;;;5071675;28;20496;-66
2023/08/28 00:23:02;;;;;;;1.73;0.70;;;21.20;93.10;;;;;;5050858;28;20085;-67
2023/08/28 00:25:28;;;;;;;2.67;0.90;;;21.20;92.90;;;;;;5050228;28;20114;-63
2023/08/28 00:27:54;;;;;;;1.75;0.80;;;21.40;93.00;;;;;;5054833;28;20048;-63
2023/08/28 00:30:19;;;;;;;3.72;1.20;;;21.20;92.90;;;;;;5053524;28;20051;-64
2023/08/28 00:32:45;;;;;;;2.53;0.90;;;21.30;93.00;;;;;;5071014;28;20052;-67
2023/08/28 00:35:11;;;;;;;1.60;0.70;;;21.20;93.00;;;;;;5072600;28;20044;-64
2023/08/28 00:37:37;;;;;;;1.67;0.90;;;21.20;92.90;;;;;;5071628;28;20045;-65
2023/08/28 00:40:03;;;;;;;2.35;0.98;;;21.30;93.00;;;;;;5055082;28;20032;-64
2023/08/28 00:42:28;;;;;;;2.65;1.17;;;21.20;93.00;;;;;;5072629;28;20497;-64
2023/08/28 00:44:54;;;;;;;2.75;1.10;;;21.20;93.00;;;;;;5069666;28;20056;-63
2023/08/28 00:47:20;;;;;;;3.63;1.00;;;21.10;92.90;;;;;;5071400;28;20127;-65
2023/08/28 00:49:46;;;;;;;2.70;0.80;;;21.20;93.00;;;;;;5055013;28;20044;-63
2023/08/28 00:52:11;;;;;;;2.05;1.00;;;21.20;93.20;;;;;;5072671;28;20045;-63
2023/08/28 00:54:39;;;;;;;3.50;1.23;;;21.20;93.00;;;;;;5055486;28;20074;-68
2023/08/28 00:57:05;;;;;;;1.85;0.80;;;21.20;93.00;;;;;;5046873;28;20092;-64
2023/08/28 00:59:30;;;;;;;3.45;0.90;;;21.00;92.40;;;;;;5044006;28;20076;-64
2023/08/28 01:01:56;;;;;;;2.72;0.82;;;21.20;93.00;;;;;;5050906;28;20383;-67
2023/08/28 01:04:23;;;;;;;1.98;0.93;;;21.10;93.00;;;;;;5050368;28;20057;-67
2023/08/28 01:07:20;;;;;;;1.05;0.70;;;21.10;93.00;;;;;;5048167;28;20108;-65
2023/08/28 01:09:49;;;;;;;1.70;0.90;;;21.10;93.00;;;;;;5032699;28;20562;-62
2023/08/28 01:12:34;;;;;;;2.38;1.05;;;21.10;93.20;;;;;;5045270;28;20083;-63
2023/08/28 01:15:11;;;;;;;2.65;0.90;;;21.00;93.10;;;;;;5048420;28;20089;-68
2023/08/28 01:17:37;;;;;;;4.43;1.33;;;21.30;93.10;;;;;;5050015;28;20037;-67
2023/08/28 01:20:04;;;;;;;3.22;1.00;;;21.20;92.00;;;;;;5050876;28;20504;-68
2023/08/28 01:22:59;;;;;;;2.53;0.70;;;21.30;93.10;;;;;;5048291;28;20040;-70
2023/08/28 01:25:25;;;;;;;3.85;0.98;;;21.20;93.20;;;;;;5051364;28;20392;-68
2023/08/28 01:27:51;;;;;;;2.38;0.98;;;21.00;93.10;;;;;;5047784;28;20056;-70
2023/08/28 01:30:17;;;;;;;3.03;1.00;;;21.10;93.10;;;;;;5049942;28;20049;-67
2023/08/28 01:32:44;;;;;;;3.42;1.00;;;21.10;93.10;;;;;;5045124;28;20052;-69
2023/08/28 01:35:21;;;;;;;2.72;1.10;;;21.10;93.20;;;;;;5045576;28;20487;-64
2023/08/28 01:38:08;;;;;;;3.08;1.00;;;21.20;93.20;;;;;;5034428;28;20063;-63
2023/08/28 01:40:59;;;;;;;3.50;1.00;;;21.00;91.30;;;;;;5051311;28;20049;-64
2023/08/28 01:43:43;;;;;;;2.88;1.08;;;21.10;93.20;;;;;;5049751;28;20048;-63
2023/08/28 01:46:08;;;;;;;2.80;0.93;;;21.10;93.30;;;;;;5024940;28;20049;-69
2023/08/28 01:48:37;;;;;;;2.38;0.95;;;21.20;93.70;;;;;;5050101;28;20106;-66
2023/08/28 01:51:03;;;;;;;3.78;0.98;;;21.10;93.20;;;;;;5050219;28;20040;-66
2023/08/28 01:53:28;;;;;;;2.45;0.82;;;21.10;93.50;;;;;;5049678;28;20040;-65
2023/08/28 01:55:57;;;;;;;1.13;0.88;;;21.00;93.60;;;;;;5048425;28;20135;-66
2023/08/28 01:58:23;;;;;;;2.50;0.85;;;21.00;93.20;;;;;;5050694;28;20445;-64
2023/08/28 02:00:49;;;;;;;2.70;0.95;;;21.20;93.20;;;;;;5049819;28;20041;-64
2023/08/28 02:03:15;;;;;;;2.53;0.98;;;21.00;93.20;;;;;;5048967;28;20088;-68
2023/08/28 02:05:40;;;;;;;2.60;1.13;;;20.90;93.50;;;;;;5047073;28;20040;-68
2023/08/28 02:08:06;;;;;;;10.77;1.15;;;21.10;93.40;;;;;;5050110;28;20084;-68
2023/08/28 02:10:32;;;;;;;1.90;0.80;;;21.00;93.40;;;;;;5049472;28;20536;-66
2023/08/28 02:12:57;;;;;;;2.05;0.80;;;21.10;93.40;;;;;;5049152;28;20053;-66
2023/08/28 02:15:23;;;;;;;2.00;0.90;;;21.10;93.30;;;;;;5051274;28;20041;-65
2023/08/28 02:17:49;;;;;;;2.20;0.90;;;21.10;93.30;;;;;;5049064;28;20114;-69
2023/08/28 02:20:15;;;;;;;2.08;0.70;;;21.00;93.30;;;;;;5050732;28;20045;-68
2023/08/28 02:22:40;;;;;;;1.00;0.80;;;20.90;92.20;;;;;;5050507;28;20491;-69
2023/08/28 02:25:06;;;;;;;2.13;0.73;;;21.10;93.30;;;;;;5051965;28;20080;-67
2023/08/28 02:27:32;;;;;;;2.33;0.90;;;21.10;93.30;;;;;;5054073;28;20106;-64
2023/08/28 02:29:58;;;;;;;2.40;1.08;;;21.00;93.30;;;;;;5056010;28;20048;-65
2023/08/28 02:32:24;;;;;;;1.55;0.70;;;21.00;93.30;;;;;;5049569;28;20057;-63
2023/08/28 02:34:50;;;;;;;3.42;0.80;;;21.00;93.30;;;;;;5056372;28;20367;-65
2023/08/28 02:37:15;;;;;;;1.92;0.93;;;20.80;92.20;;;;;;5054400;28;20165;-64
2023/08/28 02:39:41;;;;;;;2.53;0.80;;;;;;;;;;5054578;28;20045;-62
2023/08/28 02:42:07;;;;;;;3.38;0.93;;;21.00;92.60;;;;;;5053045;28;20590;-64
2023/08/28 02:44:33;;;;;;;2.88;0.85;;;;;;;;;;5055885;28;20136;-63
2023/08/28 02:46:59;;;;;;;2.78;1.00;;;21.00;93.30;;;;;;5053703;28;20048;-65
2023/08/28 02:49:25;;;;;;;1.85;0.77;;;21.00;93.30;;;;;;5055043;28;20055;-63
2023/08/28 02:51:51;;;;;;;3.50;0.82;;;21.00;93.30;;;;;;5052099;28;20041;-66
2023/08/28 02:54:16;;;;;;;2.55;0.80;;;21.00;93.30;;;;;;5052860;28;20482;-63
2023/08/28 02:56:42;;;;;;;1.52;0.65;;;20.90;93.30;;;;;;5053052;28;20420;-64
2023/08/28 02:59:08;;;;;;;2.63;0.82;;;20.90;93.50;;;;;;5052624;28;20080;-66
2023/08/28 03:01:37;;;;;;;2.55;0.80;;;20.80;93.40;;;;;;5054684;28;20132;-65
2023/08/28 03:04:04;;;;;;;2.70;0.77;;;20.80;93.30;;;;;;5054299;28;20057;-67
2023/08/28 03:06:33;;;;;;;1.55;0.75;;;20.90;91.90;;;;;;5050882;28;20049;-64
2023/08/28 03:08:59;;;;;;;2.53;0.93;;;20.90;93.40;;;;;;5053313;28;20504;-65
2023/08/28 03:11:25;;;;;;;2.53;0.80;;;21.20;92.30;;;;;;5049222;28;20136;-63
2023/08/28 03:13:51;;;;;;;2.70;0.90;;;21.00;93.40;;;;;;5050242;28;20049;-66
2023/08/28 03:16:16;;;;;;;3.80;0.95;;;21.00;93.40;;;;;;5054294;28;20048;-67
2023/08/28 03:18:42;;;;;;;2.83;1.00;;;20.90;93.40;;;;;;5051078;28;20053;-65
2023/08/28 03:21:08;;;;;;;1.33;0.70;;;21.10;93.40;;;;;;5045504;28;20132;-64
2023/08/28 03:23:34;;;;;;;3.40;1.05;;;20.90;93.40;;;;;;5050644;28;20052;-67
2023/08/28 03:25:59;;;;;;;1.83;0.82;;;20.90;92.30;;;;;;5052948;28;20102;-64
2023/08/28 03:28:25;;;;;;;1.95;0.80;;;21.00;93.40;;;;;;5053875;28;20127;-66
2023/08/28 03:30:51;;;;;;;4.47;1.05;;;20.90;93.30;;;;;;5050711;28;20037;-67
2023/08/28 03:33:17;;;;;;;3.20;1.05;;;;;;;;;;5047629;28;20041;-65
2023/08/28 03:35:43;;;;;;;3.78;1.02;;;21.00;93.30;;;;;;5052856;28;20083;-63
2023/08/28 03:38:08;;;;;;;3.05;1.10;;;20.90;93.50;;;;;;5051375;28;20052;-66
2023/08/28 03:40:36;;;;;;;3.15;0.95;;;21.00;93.40;;;;;;5053911;28;20124;-64
2023/08/28 03:43:03;;;;;;;2.60;0.73;;;20.80;93.30;;;;;;5052513;28;20041;-65
2023/08/28 03:45:29;;;;;;;1.67;0.73;;;20.90;93.20;;;;;;5052869;28;20059;-68
2023/08/28 03:47:55;;;;;;;1.92;0.85;;;20.90;93.50;;;;;;5052517;28;20044;-64
2023/08/28 03:50:21;;;;;;;1.73;0.80;;;20.80;93.30;;;;;;5053799;28;20127;-66
2023/08/28 03:52:46;;;;;;;2.30;0.90;;;20.90;93.40;;;;;;5053029;28;20095;-65
2023/08/28 03:55:12;;;;;;;3.83;1.38;;;20.80;93.30;;;;;;5054596;28;20055;-64
2023/08/28 03:57:38;;;;;;;3.97;1.33;;;20.90;93.30;;;;;;5074416;28;20048;-65
2023/08/28 04:00:05;;;;;;;2.65;0.93;;;21.00;93.30;;;;;;5054285;28;20040;-64
2023/08/28 04:02:31;;;;;;;1.95;0.75;;;20.90;93.50;;;;;;5073489;28;20068;-64
2023/08/28 04:04:57;;;;;;;1.50;1.05;;;20.90;93.30;;;;;;5071494;28;20036;-64
2023/08/28 04:07:23;;;;;;;1.95;0.90;;;20.90;93.30;;;;;;5071203;28;20048;-64
2023/08/28 04:09:49;;;;;;;1.77;0.82;;;20.80;93.30;;;;;;5053137;28;20592;-63
2023/08/28 04:12:15;;;;;;;3.03;1.10;;;20.80;93.30;;;;;;5071716;28;20127;-63
2023/08/28 04:14:41;;;;;;;2.60;1.20;;;20.90;93.30;;;;;;5071089;28;20043;-66
2023/08/28 04:17:07;;;;;;;2.03;0.88;;;;;;;;;;5071557;28;20045;-65
2023/08/28 04:19:33;;;;;;;2.33;0.70;;;20.80;93.30;;;;;;5074544;28;20066;-65
2023/08/28 04:21:59;;;;;;;2.00;1.00;;;20.70;93.40;;;;;;5073161;28;20041;-68
2023/08/28 04:24:24;;;;;;;2.90;1.00;;;20.80;93.30;;;;;;5052940;28;20044;-64
2023/08/28 04:26:50;;;;;;;2.88;1.00;;;20.80;93.30;;;;;;5070682;28;20048;-64
2023/08/28 04:29:16;;;;;;;1.75;1.02;;;20.80;93.50;;;;;;5089550;28;20044;-64
2023/08/28 04:31:42;;;;;;;3.70;1.10;;;20.70;93.30;;;;;;5053556;28;20127;-65
2023/08/28 04:34:07;;;;;;;2.55;1.10;;;20.90;93.40;;;;;;5072773;28;20712;-64
2023/08/28 04:36:33;;;;;;;3.75;1.00;;;20.80;93.30;;;;;;5051568;28;20049;-63
2023/08/28 04:38:59;;;;;;;4.00;1.17;;;20.70;93.30;;;;;;5068123;28;20033;-63
2023/08/28 04:41:25;;;;;;;3.58;0.98;;;20.60;93.30;;;;;;5071950;28;20052;-66
2023/08/28 04:43:50;;;;;;;1.75;0.70;;;20.80;93.40;;;;;;5071903;28;20040;-65
2023/08/28 04:46:16;;;;;;;2.25;0.90;;;;;;;;;;5068850;28;20041;-62
2023/08/28 04:48:42;;;;;;;1.35;0.80;;;20.70;93.40;;;;;;5071856;28;20436;-64
2023/08/28 04:51:08;;;;;;;4.38;1.10;;;;;;;;;;5055494;28;20109;-63
2023/08/28 04:53:34;;;;;;;3.53;1.20;;;20.80;93.50;;;;;;5072869;28;20048;-64
2023/08/28 04:56:00;;;;;;;3.08;1.27;;;20.70;93.40;;;;;;5068191;28;20139;-75
2023/08/28 04:58:25;;;;;;;2.20;1.00;;;20.90;93.40;;;;;;5069380;28;20052;-65
2023/08/28 05:00:51;;;;;;;2.45;1.08;;;20.90;93.40;;;;;;5019603;28;20487;-74
2023/08/28 05:03:17;;;;;;;4.03;1.25;;;20.80;93.50;;;;;;5054220;28;20048;-73
2023/08/28 05:05:43;;;;;;;3.50;1.20;;;;;;;;;;5086956;28;20127;-69
2023/08/28 05:08:09;;;;;;;2.92;1.10;;;20.90;93.40;;;;;;5053837;28;20051;-70
2023/08/28 05:10:35;;;;;;;2.45;1.00;;;20.80;93.40;;;;;;5072095;28;20048;-74
2023/08/28 05:13:00;;;;;;;2.30;0.82;;;20.90;93.40;;;;;;5066127;28;20056;-69
2023/08/28 05:15:26;;;;;;;2.03;0.93;;;20.90;93.40;;;;;;5067851;28;20170;-71
2023/08/28 05:17:52;;;;;;;5.57;1.48;;;20.80;93.40;;;;;;5069326;28;20045;-71
2023/08/28 05:20:18;;;;;;;4.05;1.00;;;21.00;93.40;;;;;;5070306;28;20171;-69
2023/08/28 05:22:44;;;;;;;2.97;1.05;;;;;;;;;;5070468;28;20090;-67
2023/08/28 05:25:09;;;;;;;3.70;1.20;;;21.00;93.40;;;;;;5071478;28;20044;-68
2023/08/28 05:27:35;;;;;;;4.30;1.00;;;20.90;93.30;;;;;;5052872;28;20059;-74
2023/08/28 05:30:01;;;;;;;1.92;0.98;;;21.10;93.50;;;;;;5072775;28;20571;-70
2023/08/28 05:32:27;;;;;;;1.92;0.90;;;21.20;93.60;;;;;;5053840;28;20092;-74
2023/08/28 05:34:53;;;;;;;5.28;1.17;;;;;;;;;;5071457;28;20040;-71
2023/08/28 05:37:19;;;;;;;3.47;1.20;;;21.20;93.30;;;;;;5066364;28;20029;-72
2023/08/28 05:39:45;;;;;;;2.28;1.10;;;21.10;93.20;;;;;;5070280;28;20504;-71
2023/08/28 05:42:11;;;;;;;2.38;1.05;;;21.50;93.20;;;;;;5071811;28;20385;-70
2023/08/28 05:44:36;;;;;;;2.08;0.80;;;21.20;92.00;;;;;;5071021;28;20045;-75
2023/08/28 05:47:03;;;;;;;3.15;1.02;;;21.80;92.90;;;;;;5072405;28;20075;-69
2023/08/28 05:49:28;;;;;;;1.50;0.90;;;21.70;93.10;;;;;;5070021;28;20032;-69
2023/08/28 05:51:54;;;;;;;2.22;1.20;;;21.80;92.70;;;;;;5070899;28;20525;-67
2023/08/28 05:54:20;;;;;;;2.50;0.88;;;21.90;92.40;;;;;;5049020;28;20052;-68
2023/08/28 05:56:45;;;;;;;2.83;0.90;;;22.10;92.30;;;;;;5053141;28;20154;-69
2023/08/28 05:59:11;;;;;;;2.92;1.15;;;22.10;92.20;;;;;;5071418;28;20120;-71
2023/08/28 06:01:37;;;;;;;2.13;0.93;;;22.10;91.10;;;;;;5083559;28;20055;-69
2023/08/28 06:04:03;;;;;;;2.58;0.95;;;22.40;92.00;;;;;;5058259;28;20131;-63
2023/08/28 06:06:29;;;;;;;1.83;1.00;;;22.50;91.80;;;;;;5061942;28;20053;-69
2023/08/28 06:08:55;;;;;;;1.95;1.08;;;22.30;90.70;;;;;;5063316;28;20054;-70
2023/08/28 06:11:21;;;;;;;2.17;0.88;;;22.50;90.60;;;;;;5071450;28;20528;-72
2023/08/28 06:13:46;;;;;;;2.63;0.90;;;22.60;91.30;;;;;;5071658;28;20040;-73
2023/08/28 06:16:12;;;;;;;4.75;1.73;;;22.90;91.30;;;;;;5071589;28;20048;-68
2023/08/28 06:18:38;;;;;;;2.80;0.98;;;22.80;91.20;;;;;;5069673;28;20106;-65
2023/08/28 06:21:04;;;;;;;2.70;1.08;;;22.80;90.10;;;;;;5052352;28;20105;-66
2023/08/28 06:23:30;;;;;;;1.88;0.77;;;22.70;91.10;;;;;;5053233;28;20041;-71
2023/08/28 06:25:56;;;;;;;2.65;0.95;;;23.00;90.80;;;;;;5037523;28;20144;-65
2023/08/28 06:28:22;;;;;;;2.75;1.00;;;23.10;90.60;;;;;;5069202;28;20044;-67
2023/08/28 06:30:50;;;;;;;1.88;0.98;;;23.10;89.80;;;;;;5069613;28;20040;-70
2023/08/28 06:33:16;;;;;;;1.83;1.00;;;23.30;89.40;;;;;;5034095;28;20064;-68
2023/08/28 06:35:41;;;;;;;2.47;1.13;;;23.20;88.80;;;;;;5067494;28;20033;-68
2023/08/28 06:38:07;;;;;;;3.45;1.27;;;23.20;88.40;;;;;;5035181;28;20048;-68
2023/08/28 06:40:33;;;;;;;2.95;1.00;;;23.20;88.30;;;;;;5051721;28;20075;-67
2023/08/28 06:42:59;;;;;;;1.95;1.00;;;23.40;88.30;;;;;;5071852;28;20041;-68
2023/08/28 06:45:25;;;;;;;1.45;0.80;;;23.40;88.30;;;;;;5071677;28;20044;-72
2023/08/28 06:47:51;;;;;;;3.13;1.10;;;23.50;88.60;;;;;;5070542;28;20060;-66
2023/08/28 06:50:16;;;;;;;1.95;0.95;;;24.10;88.70;;;;;;5053262;28;20048;-69
2023/08/28 06:52:42;;;;;;;1.95;0.90;;;23.10;88.20;;;;;;5071761;28;20049;-70
2023/08/28 06:55:08;;;;;;;4.78;1.00;;;23.20;88.30;;;;;;5067482;28;20133;-68
2023/08/28 06:57:34;;;;;;;3.97;0.98;;;23.40;87.90;;;;;;5071722;28;20055;-69
2023/08/28 07:00:00;;;;;;;2.45;1.20;;;23.50;90.20;;;;;;5050570;28;20053;-65
2023/08/28 07:02:28;;;;;;;3.17;1.13;;;23.50;88.00;;;;;;5048047;28;20071;-67
2023/08/28 07:04:54;;;;;;;3.83;1.17;;;23.60;88.00;;;;;;5068753;28;20103;-68
2023/08/28 07:07:20;;;;;;;3.85;0.98;;;23.50;87.30;;;;;;5052706;28;20056;-68
2023/08/28 07:09:46;;;;;;;2.25;0.98;;;23.50;87.50;;;;;;5070232;28;20394;-68
2023/08/28 07:12:12;;;;;;;2.63;1.10;;;23.80;87.50;;;;;;5071934;28;20535;-70
2023/08/28 07:14:37;;;;;;;2.35;1.10;;;23.70;87.30;;;;;;5067641;28;20171;-67
2023/08/28 07:17:03;;;;;;;1.77;0.93;;;24.00;90.00;;;;;;5071509;28;20474;-71
2023/08/28 07:19:29;;;;;;;2.60;1.00;;;23.90;87.00;;;;;;5067905;28;20036;-68
2023/08/28 07:21:57;;;;;;;2.63;0.90;;;24.10;87.10;;;;;;5072637;28;20048;-65
2023/08/28 07:24:23;;;;;;;3.22;1.20;;;24.20;86.90;;;;;;5071748;28;20040;-65
2023/08/28 07:26:49;;;;;;;3.67;1.10;;;24.10;86.60;;;;;;5071445;28;20044;-67
2023/08/28 07:29:14;;;;;;;2.75;1.00;;;24.10;86.40;;;;;;5054157;28;20056;-69
2023/08/28 07:31:40;;;;;;;3.50;1.10;;;24.40;87.20;;;;;;5073039;28;20051;-66
2023/08/28 07:34:06;;;;;;;3.03;0.90;;;24.30;86.20;;;;;;5070952;28;20055;-65
2023/08/28 07:36:32;;;;;;;1.77;0.90;;;24.40;86.20;;;;;;5069456;28;20052;-68
2023/08/28 07:38:58;;;;;;;3.42;1.17;;;24.60;86.20;;;;;;5069796;28;20040;-69
2023/08/28 07:41:24;;;;;;;3.47;1.20;;;24.50;86.00;;;;;;5049802;28;20052;-68
2023/08/28 07:43:50;;;;;;;3.35;1.10;;;24.50;85.70;;;;;;5073123;28;20115;-65
2023/08/28 07:46:16;;;;;;;3.20;1.20;;;24.60;85.90;;;;;;5088867;28;20048;-68
2023/08/28 07:48:41;;;;;;;2.88;1.13;;;24.70;85.40;;;;;;5072348;28;20506;-66
2023/08/28 07:51:09;;;;;;;2.67;1.05;;;24.70;85.50;;;;;;5054151;28;20186;-63
2023/08/28 07:53:35;;;;;;;2.75;1.42;;;24.80;85.70;;;;;;5089375;28;20056;-65
2023/08/28 07:56:02;;;;;;;3.20;1.15;;;24.80;85.40;;;;;;5051976;28;20495;-66
2023/08/28 07:58:29;;;;;;;2.50;1.05;;;24.80;85.40;;;;;;5052095;28;20052;-66
2023/08/28 08:00:56;;;;;;;4.65;1.42;;;24.60;85.50;;;;;;5032557;28;20048;-68
2023/08/28 08:03:22;;;;;;;3.58;1.17;;;25.00;85.80;;;;;;5047022;28;20124;-64
2023/08/28 08:05:48;;;;;;;3.67;1.15;;;24.80;85.30;;;;;;5052507;28;20119;-67
2023/08/28 08:08:13;;;;;;;3.67;1.40;;;25.10;85.50;;;;;;5052832;28;20475;-63
2023/08/28 08:10:39;;;;;;;3.72;1.40;;;25.00;85.30;;;;;;5052307;28;20114;-64
2023/08/28 08:13:05;;;;;;;4.50;1.10;;;24.80;85.10;;;;;;5048884;28;20465;-66
2023/08/28 08:15:31;;;;;;;3.78;1.10;;;25.20;85.40;;;;;;5049283;28;20037;-70
2023/08/28 08:17:57;;;;;;;2.95;1.20;;;24.90;85.20;;;;;;5050164;28;20080;-68
2023/08/28 08:20:23;;;;;;;3.35;1.00;;;25.10;85.10;;;;;;5042752;28;20495;-64
2023/08/28 08:22:49;;;;;;;4.32;1.40;;;25.00;85.00;;;;;;5050397;28;20045;-63
2023/08/28 08:25:15;;;;;;;3.20;1.40;;;24.90;85.10;;;;;;5053621;28;20091;-63
2023/08/28 08:27:44;;;;;;;3.50;1.20;;;25.00;85.20;;;;;;5048532;28;20053;-64
2023/08/28 08:30:13;;;;;;;6.32;1.40;;;25.10;85.40;;;;;;5052795;28;20048;-63
2023/08/28 08:32:39;;;;;;;6.68;1.48;;;25.20;84.90;;;;;;5051765;28;20086;-64
2023/08/28 08:35:05;;;;;;;4.57;1.40;;;25.10;85.20;;;;;;5034464;28;20045;-64
2023/08/28 08:37:32;;;;;;;4.13;1.42;;;24.90;85.10;;;;;;5049502;28;20409;-64
2023/08/28 08:39:58;;;;;;;4.00;1.55;;;25.10;85.50;;;;;;5049884;28;20124;-63
2023/08/28 08:42:24;;;;;;;4.32;1.38;;;25.10;85.20;;;;;;5045427;28;20124;-64
2023/08/28 08:44:49;;;;;;;3.63;1.50;;;25.10;85.10;;;;;;5049004;28;20144;-68
2023/08/28 08:47:16;;;;;;;7.97;1.88;;;25.10;85.00;;;;;;5048348;28;20045;-69
2023/08/28 08:49:42;;;;;;;3.75;1.50;;;25.10;85.10;;;;;;5047681;28;20090;-65
2023/08/28 08:52:09;;;;;;;3.25;1.50;;;25.40;86.00;;;;;;5047390;28;20049;-68
2023/08/28 08:54:39;;;;;;;4.20;1.50;;;25.10;85.10;;;;;;5048101;28;20037;-71
2023/08/28 08:57:13;;;;;;;5.32;1.80;;;25.30;85.20;;;;;;5058706;28;20584;-73
2023/08/28 08:59:39;;;;;;;3.38;1.65;;;25.30;85.30;;;;;;5046555;28;20040;-74
2023/08/28 09:02:06;;;;;;;5.03;1.70;;;25.20;84.70;;;;;;5044354;28;20044;-63
2023/08/28 09:04:32;;;;;;;4.60;1.90;;;25.40;85.10;;;;;;5046498;28;20511;-72
2023/08/28 09:06:58;;;;;;;4.40;2.00;;;25.40;85.10;;;;;;5045713;28;20090;-74
2023/08/28 09:09:24;;;;;;;5.00;1.95;;;25.40;85.00;;;;;;5047319;28;20123;-69
2023/08/28 09:11:49;;;;;;;4.47;1.70;;;25.30;84.90;;;;;;5048300;28;20041;-71
2023/08/28 09:14:16;;;;;;;4.03;1.60;;;25.40;85.10;;;;;;5056666;28;20061;-63
2023/08/28 09:16:42;;;;;;;5.35;1.67;;;25.30;84.80;;;;;;5053217;28;20045;-72
2023/08/28 09:19:08;;;;;;;4.22;1.83;;;25.10;85.20;;;;;;5050175;28;20106;-71
2023/08/28 09:21:35;;;;;;;5.65;1.80;;;25.20;85.50;;;;;;5050071;28;20375;-72
2023/08/28 09:24:01;;;;;;;4.40;2.00;;;25.10;85.10;;;;;;5048727;28;20037;-63
2023/08/28 09:26:28;;;;;;;4.03;1.92;;;24.90;84.70;;;;;;5051143;28;20041;-65
2023/08/28 09:29:00;;;;;;;4.07;1.80;;;25.30;85.10;;;;;;5049935;28;20064;-64
2023/08/28 09:31:37;;;;;;;3.67;1.73;;;24.80;85.10;;;;;;5032708;28;20048;-66
2023/08/28 09:34:04;;;;;;;4.05;1.80;;;24.80;84.90;;;;;;5016067;28;20064;-75
2023/08/28 09:36:37;;;;;;;4.45;1.75;;;25.00;85.70;;;;;;5049508;28;20041;-65
2023/08/28 09:39:04;;;;;;;4.78;2.08;;;24.80;85.70;;;;;;5032507;28;20041;-69
2023/08/28 09:41:43;;;;;;;3.63;1.92;;;25.10;86.00;;;;;;5027084;28;20513;-70
2023/08/28 09:44:10;;;;;;;4.32;1.55;;;24.60;84.40;;;;;;5049947;28;20052;-71
2023/08/28 09:46:37;;;;;;;4.40;1.90;;;24.90;86.50;;;;;;5049442;28;20390;-73
2023/08/28 09:49:04;;;;;;;3.90;1.85;;;24.70;86.10;;;;;;5048480;28;20055;-66
2023/08/28 09:51:45;;;;;;;4.28;1.70;;;24.70;86.30;;;;;;5051127;28;20049;-67
2023/08/28 09:54:13;;;;;;;5.30;2.03;;;24.60;85.10;;;;;;5045051;28;20156;-69
2023/08/28 09:56:38;;;;;;;5.50;2.50;;;24.50;86.50;;;;;;5076032;28;20065;-65
2023/08/28 09:59:06;;;;;;;4.50;1.75;;;24.50;86.00;;;;;;5052797;28;20059;-75
2023/08/28 10:01:33;;;;;;;5.78;2.00;;;24.60;86.70;;;;;;5053401;28;20044;-70
2023/08/28 10:04:01;;;;;;;5.63;2.65;;;24.60;86.80;;;;;;5052380;28;20045;-72
2023/08/28 10:06:27;;;;;;;6.25;1.92;;;24.60;87.10;;;;;;5022589;28;20055;-71
2023/08/28 10:08:55;;;;;;;3.72;1.80;;;24.50;87.10;;;;;;5053197;28;20040;-66
2023/08/28 10:11:20;;;;;;;4.47;2.05;;;24.30;87.10;;;;;;5021469;28;20083;-63
2023/08/28 10:13:46;;;;;;;4.03;2.10;;;24.30;86.90;;;;;;5041661;28;20080;-64
2023/08/28 10:16:15;;;;;;;4.57;1.65;;;24.40;87.10;;;;;;5053521;28;20393;-63
2023/08/28 10:18:47;;;;;;;4.07;2.05;;;24.10;87.50;;;;;;5056808;28;20051;-64
2023/08/28 10:21:12;;;;;;;5.10;1.70;;;24.40;87.50;;;;;;5022313;28;20044;-68
2023/08/28 10:23:38;;;;;;;4.90;1.90;;;24.20;87.00;;;;;;5068365;28;20381;-68
2023/08/28 10:26:04;;;;;;;4.40;1.70;;;24.30;86.80;;;;;;5044805;28;20060;-65
2023/08/28 10:28:30;;;;;;;3.50;1.77;;;24.20;86.90;;;;;;5085213;28;20085;-68
2023/08/28 10:30:57;;;;;;;4.50;2.08;;;24.30;86.90;;;;;;5044609;28;20048;-68
2023/08/28 10:33:23;;;;;;;5.25;1.85;;;24.50;87.20;;;;;;5039839;28;20069;-69
2023/08/28 10:35:50;;;;;;;4.50;1.92;;;24.50;87.20;;;;;;5082625;28;20052;-68
2023/08/28 10:38:20;;;;;;;5.63;1.77;;;24.50;87.50;;;;;;5037287;28;20054;-64
2023/08/28 10:40:58;;;;;;;3.70;1.80;;;24.30;87.30;;;;;;5056699;28;20044;-73
2023/08/28 10:43:24;;;;;;;5.07;1.98;;;24.20;87.30;;;;;;5066106;28;20040;-68
2023/08/28 10:45:51;;;;;;;3.63;1.75;;;24.30;87.20;;;;;;5022699;28;20041;-65
2023/08/28 10:48:17;;;;;;;4.65;1.80;;;24.20;87.50;;;;;;5065693;28;20092;-66
2023/08/28 10:50:42;;;;;;;3.03;1.70;;;24.20;87.20;;;;;;5054999;28;20046;-70
2023/08/28 10:53:13;;;;;;;4.07;1.80;;;24.40;87.40;;;;;;5091517;28;20123;-72
2023/08/28 10:55:40;;;;;;;4.35;1.65;;;24.30;87.90;;;;;;5072210;28;20110;-67
2023/08/28 10:58:05;;;;;;;3.63;1.70;;;24.10;87.60;;;;;;5071898;28;20051;-69
2023/08/28 11:00:34;;;;;;;4.35;1.77;;;24.10;87.80;;;;;;5075009;28;20040;-68
2023/08/28 11:03:14;;;;;;;3.92;1.58;;;24.10;90.40;;;;;;5073840;28;20044;-67
2023/08/28 11:05:42;;;;;;;3.85;1.80;;;24.10;88.30;;;;;;5082432;28;20042;-67
2023/08/28 11:08:09;;;;;;;5.47;1.98;;;24.20;87.70;;;;;;5083318;28;20060;-71
2023/08/28 11:10:35;;;;;;;3.50;1.70;;;24.30;87.90;;;;;;5091386;28;20497;-66
2023/08/28 11:13:02;;;;;;;5.00;1.85;;;24.30;87.80;;;;;;5067067;28;20098;-65
2023/08/28 11:15:30;;;;;;;5.05;1.98;;;24.60;88.00;;;;;;5092100;28;20044;-64
2023/08/28 11:18:18;;;;;;;5.55;2.00;;;24.20;87.90;;;;;;5058820;28;20046;-73
2023/08/28 11:20:51;;;;;;;10.75;4.70;;;24.30;86.90;;;;;;5089907;28;20046;-67
2023/08/28 11:23:34;;;;;;;7.10;3.83;;;24.20;88.10;;;;;;5056862;28;20036;-69
2023/08/28 11:26:26;;;;;;;5.95;2.55;;;24.00;86.60;;;;;;5063956;28;20075;-66
2023/08/28 11:28:52;;;;;;;5.57;2.10;;;24.30;86.90;;;;;;5055084;28;20084;-67
2023/08/28 11:31:19;;;;;;;4.72;2.03;;;24.40;87.90;;;;;;5088451;28;20658;-65
2023/08/28 11:33:54;;;;;;;4.55;1.92;;;24.20;88.00;;;;;;5055644;28;20085;-71
2023/08/28 11:36:21;;;;;;;4.88;1.90;;;24.10;88.10;;;;;;5072318;28;20452;-67
2023/08/28 11:38:48;;;;;;;5.55;2.15;;;24.00;87.90;;;;;;5090060;28;20048;-71
2023/08/28 11:41:14;;;;;;;14.40;3.05;;;24.00;88.00;;;;;;5052212;28;20451;-67
2023/08/28 11:43:41;;;;;;;15.27;2.95;;;24.00;87.80;;;;;;5074693;28;20112;-68
2023/08/28 11:46:07;;;;;;;13.50;2.65;;;24.30;88.30;;;;;;5056886;28;20116;-64
2023/08/28 11:48:36;;;;;;;11.18;2.53;;;24.20;90.50;;;;;;5056521;28;20044;-68
2023/08/28 11:51:03;;;;;;;13.38;2.53;;;24.10;90.40;;;;;;5079799;28;20045;-64
2023/08/28 11:53:41;;;;;;;6.95;1.95;;;24.00;88.10;;;;;;5062779;28;20127;-68
2023/08/28 11:56:08;;;;;;;11.73;2.10;;;24.10;88.10;;;;;;5081795;28;20412;-64
2023/08/28 11:58:34;;;;;;;9.20;2.35;;;24.30;88.20;;;;;;5084132;28;20054;-65
2023/08/28 12:01:08;;;;;;;9.88;2.50;;;23.90;87.90;;;;;;5089158;28;20389;-69
2023/08/28 12:03:37;;;;;;;10.73;2.70;;;24.00;88.20;;;;;;5078995;28;20087;-65
2023/08/28 12:06:07;;;;;;;7.97;2.15;;;24.00;88.20;;;;;;5072141;28;20052;-65
2023/08/28 12:08:40;;;;;;;10.02;2.28;;;24.10;88.50;;;;;;5069386;28;20077;-68
2023/08/28 12:11:09;;;;;;;7.30;2.13;;;24.40;88.70;;;;;;5078141;28;20565;-69
2023/08/28 12:13:36;;;;;;;6.05;2.40;;;24.20;87.10;;;;;;5073624;28;20463;-67
2023/08/28 12:16:14;;;;;;;6.05;2.00;;;24.20;88.40;;;;;;5086783;28;20048;-68
2023/08/28 12:18:48;;;;;;;7.78;2.08;;;24.10;87.30;;;;;;5072507;28;20048;-66
2023/08/28 12:21:15;;;;;;;6.22;1.98;;;24.30;89.00;;;;;;5056985;28;20048;-65
2023/08/28 12:23:45;;;;;;;8.23;2.00;;;24.00;88.60;;;;;;5039358;28;20047;-65
2023/08/28 12:26:11;;;;;;;4.38;1.70;;;24.30;88.80;;;;;;5085076;28;20490;-64
2023/08/28 12:28:37;;;;;;;5.70;2.03;;;24.20;88.10;;;;;;5078440;28;20051;-64
2023/08/28 12:31:03;;;;;;;5.63;1.95;;;24.50;88.30;;;;;;5082559;28;20052;-64
2023/08/28 12:33:29;;;;;;;5.32;1.80;;;24.50;87.90;;;;;;5057050;28;20068;-66
2023/08/28 12:35:55;;;;;;;6.70;1.90;;;24.40;87.80;;;;;;5074873;28;20049;-67
2023/08/28 12:38:21;;;;;;;6.63;2.15;;;26.90;89.60;;;;;;5077397;28;20750;-72
2023/08/28 12:40:50;;;;;;;4.32;1.67;;;24.50;88.00;;;;;;5070459;28;20048;-63
2023/08/28 12:43:16;;;;;;;5.68;1.88;;;24.60;87.70;;;;;;5085523;28;20079;-65
2023/08/28 12:45:42;;;;;;;5.30;1.73;;;24.70;87.60;;;;;;5082023;28;20075;-65
2023/08/28 12:48:07;;;;;;;5.22;1.77;;;24.50;87.60;;;;;;5057504;28;20052;-70
2023/08/28 12:50:35;;;;;;;10.57;2.20;;;24.70;87.60;;;;;;5086799;28;20103;-68